sensor_id;sensor_type;location;lat;lon;timestamp;temperature;humidity
35325;DHT22;35135;47.510;19.036;2022-08-04T00:02:29;27.30;41.50
35325;DHT22;35135;47.510;19.036;2022-08-04T00:05:05;27.30;41.40
35325;DHT22;35135;47.510;19.036;2022-08-04T00:10:19;27.30;41.10
35325;DHT22;35135;47.510;19.036;2022-08-04T00:12:49;27.20;41.20
35325;DHT22;35135;47.510;19.036;2022-08-04T00:15:18;27.20;41.00
35325;DHT22;35135;47.510;19.036;2022-08-04T00:17:48;27.30;41.40
35325;DHT22;35135;47.510;19.036;2022-08-04T00:20:17;27.20;41.20
35325;DHT22;35135;47.510;19.036;2022-08-04T00:22:45;27.30;41.10
35325;DHT22;35135;47.510;19.036;2022-08-04T00:25:13;27.20;41.10
35325;DHT22;35135;47.510;19.036;2022-08-04T00:27:41;27.20;40.90
35325;DHT22;35135;47.510;19.036;2022-08-04T00:30:09;27.20;40.90
35325;DHT22;35135;47.510;19.036;2022-08-04T00:32:38;27.20;40.70
35325;DHT22;35135;47.510;19.036;2022-08-04T00:35:05;27.10;40.90
35325;DHT22;35135;47.510;19.036;2022-08-04T00:37:36;27.20;41.10
35325;DHT22;35135;47.510;19.036;2022-08-04T00:40:47;27.10;41.00
35325;DHT22;35135;47.510;19.036;2022-08-04T00:42:58;27.20;41.10
35325;DHT22;35135;47.510;19.036;2022-08-04T00:48:11;27.10;40.70
35325;DHT22;35135;47.510;19.036;2022-08-04T00:50:44;27.10;40.80
35325;DHT22;35135;47.510;19.036;2022-08-04T00:56:54;27.00;40.90
35325;DHT22;35135;47.510;19.036;2022-08-04T00:59:26;27.00;41.10
35325;DHT22;35135;47.510;19.036;2022-08-04T01:02:00;27.00;41.20
35325;DHT22;35135;47.510;19.036;2022-08-04T01:09:54;26.90;41.30
35325;DHT22;35135;47.510;19.036;2022-08-04T01:12:35;26.90;41.50
35325;DHT22;35135;47.510;19.036;2022-08-04T01:17:58;26.90;41.60
35325;DHT22;35135;47.510;19.036;2022-08-04T01:20:40;26.90;41.70
35325;DHT22;35135;47.510;19.036;2022-08-04T01:31:08;27.00;41.70
35325;DHT22;35135;47.510;19.036;2022-08-04T01:33:37;27.00;41.70
35325;DHT22;35135;47.510;19.036;2022-08-04T01:36:04;26.90;41.80
35325;DHT22;35135;47.510;19.036;2022-08-04T01:38:39;27.00;41.90
35325;DHT22;35135;47.510;19.036;2022-08-04T01:41:12;27.00;41.90
35325;DHT22;35135;47.510;19.036;2022-08-04T01:43:41;27.00;41.90
35325;DHT22;35135;47.510;19.036;2022-08-04T01:46:14;27.00;41.70
35325;DHT22;35135;47.510;19.036;2022-08-04T01:48:45;27.00;41.90
35325;DHT22;35135;47.510;19.036;2022-08-04T01:51:13;27.00;41.90
35325;DHT22;35135;47.510;19.036;2022-08-04T01:53:45;27.00;41.90
35325;DHT22;35135;47.510;19.036;2022-08-04T01:56:13;27.00;41.90
35325;DHT22;35135;47.510;19.036;2022-08-04T01:58:41;27.00;42.00
35325;DHT22;35135;47.510;19.036;2022-08-04T02:01:09;27.00;42.00
35325;DHT22;35135;47.510;19.036;2022-08-04T02:03:37;27.00;42.00
35325;DHT22;35135;47.510;19.036;2022-08-04T02:11:03;27.00;42.10
35325;DHT22;35135;47.510;19.036;2022-08-04T02:13:32;27.00;42.20
35325;DHT22;35135;47.510;19.036;2022-08-04T02:16:05;27.00;42.20
35325;DHT22;35135;47.510;19.036;2022-08-04T02:18:49;26.90;42.20
35325;DHT22;35135;47.510;19.036;2022-08-04T02:21:20;26.90;42.40
35325;DHT22;35135;47.510;19.036;2022-08-04T02:23:52;26.90;42.50
35325;DHT22;35135;47.510;19.036;2022-08-04T02:26:19;26.90;42.40
35325;DHT22;35135;47.510;19.036;2022-08-04T02:28:46;27.00;42.40
35325;DHT22;35135;47.510;19.036;2022-08-04T02:31:29;27.00;42.50
35325;DHT22;35135;47.510;19.036;2022-08-04T02:34:05;27.00;42.50
35325;DHT22;35135;47.510;19.036;2022-08-04T02:36:38;27.00;42.50
35325;DHT22;35135;47.510;19.036;2022-08-04T02:39:08;27.00;42.50
35325;DHT22;35135;47.510;19.036;2022-08-04T02:41:36;26.90;42.50
35325;DHT22;35135;47.510;19.036;2022-08-04T02:44:04;26.90;42.60
35325;DHT22;35135;47.510;19.036;2022-08-04T02:46:33;26.90;42.70
35325;DHT22;35135;47.510;19.036;2022-08-04T02:49:02;26.80;42.70
35325;DHT22;35135;47.510;19.036;2022-08-04T02:51:32;26.90;42.80
35325;DHT22;35135;47.510;19.036;2022-08-04T02:54:01;26.90;42.80
35325;DHT22;35135;47.510;19.036;2022-08-04T02:56:30;26.90;42.90
35325;DHT22;35135;47.510;19.036;2022-08-04T02:59:03;26.80;42.80
35325;DHT22;35135;47.510;19.036;2022-08-04T03:01:30;26.80;42.90
35325;DHT22;35135;47.510;19.036;2022-08-04T03:09:08;26.80;43.30
35325;DHT22;35135;47.510;19.036;2022-08-04T03:14:38;26.80;43.30
35325;DHT22;35135;47.510;19.036;2022-08-04T03:27:46;26.80;43.40
35325;DHT22;35135;47.510;19.036;2022-08-04T03:30:27;26.80;43.40
35325;DHT22;35135;47.510;19.036;2022-08-04T03:36:00;26.80;43.40
35325;DHT22;35135;47.510;19.036;2022-08-04T03:42:05;26.70;43.50
35325;DHT22;35135;47.510;19.036;2022-08-04T03:51:45;26.70;43.70
35325;DHT22;35135;47.510;19.036;2022-08-04T04:07:38;26.80;43.80
35325;DHT22;35135;47.510;19.036;2022-08-04T04:10:17;26.80;43.80
35325;DHT22;35135;47.510;19.036;2022-08-04T04:24:15;26.70;43.90
35325;DHT22;35135;47.510;19.036;2022-08-04T04:45:11;26.70;44.30
35325;DHT22;35135;47.510;19.036;2022-08-04T04:47:44;26.70;44.30
35325;DHT22;35135;47.510;19.036;2022-08-04T04:50:22;26.80;44.40
35325;DHT22;35135;47.510;19.036;2022-08-04T04:55:41;26.90;44.70
35325;DHT22;35135;47.510;19.036;2022-08-04T04:58:10;26.80;44.60
35325;DHT22;35135;47.510;19.036;2022-08-04T05:08:30;27.00;44.60
35325;DHT22;35135;47.510;19.036;2022-08-04T05:13:41;26.90;44.70
35325;DHT22;35135;47.510;19.036;2022-08-04T05:18:39;26.90;44.50
35325;DHT22;35135;47.510;19.036;2022-08-04T05:21:31;26.90;44.80
35325;DHT22;35135;47.510;19.036;2022-08-04T05:24:01;27.00;45.00
35325;DHT22;35135;47.510;19.036;2022-08-04T05:26:30;27.00;45.00
35325;DHT22;35135;47.510;19.036;2022-08-04T05:28:59;27.00;45.00
35325;DHT22;35135;47.510;19.036;2022-08-04T05:31:30;27.10;44.90
35325;DHT22;35135;47.510;19.036;2022-08-04T05:33:59;27.10;44.80
35325;DHT22;35135;47.510;19.036;2022-08-04T05:36:35;27.10;44.60
35325;DHT22;35135;47.510;19.036;2022-08-04T05:39:03;27.20;44.50
35325;DHT22;35135;47.510;19.036;2022-08-04T05:41:32;27.20;44.50
35325;DHT22;35135;47.510;19.036;2022-08-04T05:44:00;27.20;44.50
35325;DHT22;35135;47.510;19.036;2022-08-04T05:46:28;27.30;44.50
35325;DHT22;35135;47.510;19.036;2022-08-04T05:48:56;27.30;44.40
35325;DHT22;35135;47.510;19.036;2022-08-04T05:51:24;27.30;44.40
35325;DHT22;35135;47.510;19.036;2022-08-04T05:53:52;27.40;44.30
35325;DHT22;35135;47.510;19.036;2022-08-04T05:56:20;27.40;44.20
35325;DHT22;35135;47.510;19.036;2022-08-04T05:58:48;27.40;44.10
35325;DHT22;35135;47.510;19.036;2022-08-04T06:01:16;27.40;44.00
35325;DHT22;35135;47.510;19.036;2022-08-04T06:03:44;27.50;44.00
35325;DHT22;35135;47.510;19.036;2022-08-04T06:06:13;27.50;43.90
35325;DHT22;35135;47.510;19.036;2022-08-04T06:08:40;27.50;43.80
35325;DHT22;35135;47.510;19.036;2022-08-04T06:11:07;27.50;43.70
35325;DHT22;35135;47.510;19.036;2022-08-04T06:13:42;27.50;43.70
35325;DHT22;35135;47.510;19.036;2022-08-04T06:16:09;27.50;43.50
35325;DHT22;35135;47.510;19.036;2022-08-04T06:18:36;27.60;43.50
35325;DHT22;35135;47.510;19.036;2022-08-04T06:21:03;27.60;43.40
35325;DHT22;35135;47.510;19.036;2022-08-04T06:23:30;27.60;43.40
35325;DHT22;35135;47.510;19.036;2022-08-04T06:25:58;27.60;43.30
35325;DHT22;35135;47.510;19.036;2022-08-04T06:28:26;27.70;43.20
35325;DHT22;35135;47.510;19.036;2022-08-04T06:30:54;27.70;43.20
35325;DHT22;35135;47.510;19.036;2022-08-04T06:33:28;27.70;43.10
35325;DHT22;35135;47.510;19.036;2022-08-04T06:36:00;27.70;43.10
35325;DHT22;35135;47.510;19.036;2022-08-04T06:38:28;27.70;43.10
35325;DHT22;35135;47.510;19.036;2022-08-04T06:40:55;27.70;43.00
35325;DHT22;35135;47.510;19.036;2022-08-04T06:43:28;27.80;43.10
35325;DHT22;35135;47.510;19.036;2022-08-04T06:45:55;27.80;43.10
35325;DHT22;35135;47.510;19.036;2022-08-04T06:48:22;27.80;43.10
35325;DHT22;35135;47.510;19.036;2022-08-04T06:50:50;27.80;43.10
35325;DHT22;35135;47.510;19.036;2022-08-04T06:53:16;27.80;43.00
35325;DHT22;35135;47.510;19.036;2022-08-04T06:55:44;27.80;43.00
35325;DHT22;35135;47.510;19.036;2022-08-04T06:58:10;27.90;43.00
35325;DHT22;35135;47.510;19.036;2022-08-04T07:00:39;27.90;43.00
35325;DHT22;35135;47.510;19.036;2022-08-04T07:03:14;27.90;43.00
35325;DHT22;35135;47.510;19.036;2022-08-04T07:05:41;27.90;42.90
35325;DHT22;35135;47.510;19.036;2022-08-04T07:08:15;27.90;42.90
35325;DHT22;35135;47.510;19.036;2022-08-04T07:10:42;27.90;42.80
35325;DHT22;35135;47.510;19.036;2022-08-04T07:13:09;27.90;42.80
35325;DHT22;35135;47.510;19.036;2022-08-04T07:15:38;27.90;42.70
35325;DHT22;35135;47.510;19.036;2022-08-04T07:18:05;27.90;42.60
35325;DHT22;35135;47.510;19.036;2022-08-04T07:20:35;27.90;42.40
35325;DHT22;35135;47.510;19.036;2022-08-04T07:23:06;28.00;42.40
35325;DHT22;35135;47.510;19.036;2022-08-04T07:25:37;28.00;42.40
35325;DHT22;35135;47.510;19.036;2022-08-04T07:28:04;28.00;42.50
35325;DHT22;35135;47.510;19.036;2022-08-04T07:30:31;28.00;42.50
35325;DHT22;35135;47.510;19.036;2022-08-04T07:32:57;28.00;42.40
35325;DHT22;35135;47.510;19.036;2022-08-04T07:35:25;28.00;42.40
35325;DHT22;35135;47.510;19.036;2022-08-04T07:37:54;28.00;42.30
35325;DHT22;35135;47.510;19.036;2022-08-04T07:40:22;28.00;42.20
35325;DHT22;35135;47.510;19.036;2022-08-04T07:42:50;28.10;42.30
35325;DHT22;35135;47.510;19.036;2022-08-04T07:45:20;28.10;42.20
35325;DHT22;35135;47.510;19.036;2022-08-04T07:47:48;28.10;42.10
35325;DHT22;35135;47.510;19.036;2022-08-04T07:50:13;28.10;42.00
35325;DHT22;35135;47.510;19.036;2022-08-04T07:52:40;28.10;42.00
35325;DHT22;35135;47.510;19.036;2022-08-04T07:55:07;28.10;42.10
35325;DHT22;35135;47.510;19.036;2022-08-04T07:57:35;28.10;42.10
35325;DHT22;35135;47.510;19.036;2022-08-04T08:00:04;28.10;41.80
35325;DHT22;35135;47.510;19.036;2022-08-04T08:02:31;28.20;41.80
35325;DHT22;35135;47.510;19.036;2022-08-04T08:05:02;28.10;41.80
35325;DHT22;35135;47.510;19.036;2022-08-04T08:07:29;28.10;41.70
35325;DHT22;35135;47.510;19.036;2022-08-04T08:09:59;28.20;41.80
35325;DHT22;35135;47.510;19.036;2022-08-04T08:12:35;28.20;41.80
35325;DHT22;35135;47.510;19.036;2022-08-04T08:15:09;28.20;41.80
35325;DHT22;35135;47.510;19.036;2022-08-04T08:17:39;28.20;41.80
35325;DHT22;35135;47.510;19.036;2022-08-04T08:20:06;28.20;41.80
35325;DHT22;35135;47.510;19.036;2022-08-04T08:22:38;28.20;41.80
35325;DHT22;35135;47.510;19.036;2022-08-04T08:25:06;28.20;41.70
35325;DHT22;35135;47.510;19.036;2022-08-04T08:27:38;28.20;41.60
35325;DHT22;35135;47.510;19.036;2022-08-04T08:30:06;28.20;41.60
35325;DHT22;35135;47.510;19.036;2022-08-04T08:32:34;28.30;41.60
35325;DHT22;35135;47.510;19.036;2022-08-04T08:35:05;28.30;41.60
35325;DHT22;35135;47.510;19.036;2022-08-04T08:37:51;28.30;41.60
35325;DHT22;35135;47.510;19.036;2022-08-04T08:43:14;28.30;41.40
35325;DHT22;35135;47.510;19.036;2022-08-04T08:45:52;28.30;41.50
35325;DHT22;35135;47.510;19.036;2022-08-04T08:57:09;28.30;41.30
35325;DHT22;35135;47.510;19.036;2022-08-04T09:00:05;28.30;41.20
35325;DHT22;35135;47.510;19.036;2022-08-04T09:05:42;28.40;41.30
35325;DHT22;35135;47.510;19.036;2022-08-04T09:11:09;28.40;41.30
35325;DHT22;35135;47.510;19.036;2022-08-04T09:13:57;28.40;41.30
35325;DHT22;35135;47.510;19.036;2022-08-04T09:16:56;28.40;41.30
35325;DHT22;35135;47.510;19.036;2022-08-04T09:22:21;28.40;41.30
35325;DHT22;35135;47.510;19.036;2022-08-04T09:24:53;28.40;41.20
35325;DHT22;35135;47.510;19.036;2022-08-04T09:27:25;28.40;41.20
35325;DHT22;35135;47.510;19.036;2022-08-04T09:32:54;28.40;41.20
35325;DHT22;35135;47.510;19.036;2022-08-04T09:49:15;28.50;41.10
35325;DHT22;35135;47.510;19.036;2022-08-04T09:51:55;28.50;41.00
35325;DHT22;35135;47.510;19.036;2022-08-04T09:54:44;28.50;40.90
35325;DHT22;35135;47.510;19.036;2022-08-04T10:00:13;28.50;41.00
35325;DHT22;35135;47.510;19.036;2022-08-04T10:02:43;28.50;41.00
35325;DHT22;35135;47.510;19.036;2022-08-04T10:05:16;28.50;40.90
35325;DHT22;35135;47.510;19.036;2022-08-04T10:08:12;28.50;40.90
35325;DHT22;35135;47.510;19.036;2022-08-04T10:19:10;28.50;40.80
35325;DHT22;35135;47.510;19.036;2022-08-04T10:27:06;28.50;40.80
35325;DHT22;35135;47.510;19.036;2022-08-04T10:29:41;28.60;40.80
35325;DHT22;35135;47.510;19.036;2022-08-04T10:34:50;28.60;40.80
35325;DHT22;35135;47.510;19.036;2022-08-04T10:37:25;28.60;40.80
35325;DHT22;35135;47.510;19.036;2022-08-04T10:42:49;28.60;40.80
35325;DHT22;35135;47.510;19.036;2022-08-04T10:45:27;28.60;40.80
35325;DHT22;35135;47.510;19.036;2022-08-04T10:53:45;28.60;40.80
35325;DHT22;35135;47.510;19.036;2022-08-04T10:56:14;28.60;40.80
35325;DHT22;35135;47.510;19.036;2022-08-04T10:59:09;28.60;40.60
35325;DHT22;35135;47.510;19.036;2022-08-04T11:01:39;28.60;40.70
35325;DHT22;35135;47.510;19.036;2022-08-04T11:04:32;28.60;40.70
35325;DHT22;35135;47.510;19.036;2022-08-04T11:07:00;28.60;40.80
35325;DHT22;35135;47.510;19.036;2022-08-04T11:09:28;28.60;40.60
35325;DHT22;35135;47.510;19.036;2022-08-04T11:12:23;28.60;40.70
35325;DHT22;35135;47.510;19.036;2022-08-04T11:14:52;28.60;40.70
35325;DHT22;35135;47.510;19.036;2022-08-04T11:17:28;28.60;40.60
35325;DHT22;35135;47.510;19.036;2022-08-04T11:23:05;28.70;40.50
35325;DHT22;35135;47.510;19.036;2022-08-04T11:31:21;28.70;40.50
35325;DHT22;35135;47.510;19.036;2022-08-04T11:36:50;28.70;40.50
35325;DHT22;35135;47.510;19.036;2022-08-04T11:47:28;28.70;40.50
35325;DHT22;35135;47.510;19.036;2022-08-04T11:52:52;28.70;40.50
35325;DHT22;35135;47.510;19.036;2022-08-04T11:55:21;28.70;40.50
35325;DHT22;35135;47.510;19.036;2022-08-04T11:57:52;28.70;40.50
35325;DHT22;35135;47.510;19.036;2022-08-04T12:00:24;28.70;40.40
35325;DHT22;35135;47.510;19.036;2022-08-04T12:08:40;28.80;40.30
35325;DHT22;35135;47.510;19.036;2022-08-04T12:14:03;28.70;40.30
35325;DHT22;35135;47.510;19.036;2022-08-04T12:17:17;28.80;40.20
35325;DHT22;35135;47.510;19.036;2022-08-04T12:19:43;28.80;40.10
35325;DHT22;35135;47.510;19.036;2022-08-04T12:22:55;28.80;40.20
35325;DHT22;35135;47.510;19.036;2022-08-04T12:25:09;28.80;40.20
35325;DHT22;35135;47.510;19.036;2022-08-04T12:30:28;28.80;40.00
35325;DHT22;35135;47.510;19.036;2022-08-04T12:33:19;28.80;40.00
35325;DHT22;35135;47.510;19.036;2022-08-04T12:35:59;28.80;40.10
35325;DHT22;35135;47.510;19.036;2022-08-04T12:38:31;28.80;40.10
35325;DHT22;35135;47.510;19.036;2022-08-04T12:41:02;28.80;40.00
35325;DHT22;35135;47.510;19.036;2022-08-04T12:43:38;28.80;39.90
35325;DHT22;35135;47.510;19.036;2022-08-04T12:46:32;28.80;40.00
35325;DHT22;35135;47.510;19.036;2022-08-04T12:49:02;28.80;40.00
35325;DHT22;35135;47.510;19.036;2022-08-04T12:51:35;28.80;39.90
35325;DHT22;35135;47.510;19.036;2022-08-04T12:54:05;28.80;39.90
35325;DHT22;35135;47.510;19.036;2022-08-04T12:56:37;28.80;39.90
35325;DHT22;35135;47.510;19.036;2022-08-04T12:59:05;28.90;40.00
35325;DHT22;35135;47.510;19.036;2022-08-04T13:01:33;28.90;40.00
35325;DHT22;35135;47.510;19.036;2022-08-04T13:04:21;28.90;39.90
35325;DHT22;35135;47.510;19.036;2022-08-04T13:06:52;28.90;40.50
35325;DHT22;35135;47.510;19.036;2022-08-04T13:09:23;28.90;39.90
35325;DHT22;35135;47.510;19.036;2022-08-04T13:11:53;28.90;40.00
35325;DHT22;35135;47.510;19.036;2022-08-04T13:14:21;28.90;39.90
35325;DHT22;35135;47.510;19.036;2022-08-04T13:16:55;28.90;39.90
35325;DHT22;35135;47.510;19.036;2022-08-04T13:19:21;28.90;39.90
35325;DHT22;35135;47.510;19.036;2022-08-04T13:21:47;28.90;39.90
35325;DHT22;35135;47.510;19.036;2022-08-04T13:24:13;28.90;39.80
35325;DHT22;35135;47.510;19.036;2022-08-04T13:26:50;28.90;39.90
35325;DHT22;35135;47.510;19.036;2022-08-04T13:29:18;28.90;39.90
35325;DHT22;35135;47.510;19.036;2022-08-04T13:31:44;28.90;39.90
35325;DHT22;35135;47.510;19.036;2022-08-04T13:34:11;28.90;39.80
35325;DHT22;35135;47.510;19.036;2022-08-04T13:36:37;28.90;39.80
35325;DHT22;35135;47.510;19.036;2022-08-04T13:39:05;28.90;39.90
35325;DHT22;35135;47.510;19.036;2022-08-04T13:41:38;28.90;39.90
35325;DHT22;35135;47.510;19.036;2022-08-04T13:44:07;28.90;39.80
35325;DHT22;35135;47.510;19.036;2022-08-04T13:47:09;28.90;39.80
35325;DHT22;35135;47.510;19.036;2022-08-04T13:49:26;28.90;39.80
35325;DHT22;35135;47.510;19.036;2022-08-04T13:51:56;28.90;39.80
35325;DHT22;35135;47.510;19.036;2022-08-04T13:54:24;29.00;39.80
35325;DHT22;35135;47.510;19.036;2022-08-04T13:56:51;29.00;39.80
35325;DHT22;35135;47.510;19.036;2022-08-04T13:59:18;28.90;39.70
35325;DHT22;35135;47.510;19.036;2022-08-04T14:01:46;29.00;39.80
35325;DHT22;35135;47.510;19.036;2022-08-04T14:04:20;29.00;39.80
35325;DHT22;35135;47.510;19.036;2022-08-04T14:09:26;29.00;39.80
35325;DHT22;35135;47.510;19.036;2022-08-04T14:11:54;29.00;39.80
35325;DHT22;35135;47.510;19.036;2022-08-04T14:16:54;29.00;39.70
35325;DHT22;35135;47.510;19.036;2022-08-04T14:19:19;29.00;39.60
35325;DHT22;35135;47.510;19.036;2022-08-04T14:21:45;29.00;39.60
35325;DHT22;35135;47.510;19.036;2022-08-04T14:24:21;29.00;39.70
35325;DHT22;35135;47.510;19.036;2022-08-04T14:26:47;29.00;39.60
35325;DHT22;35135;47.510;19.036;2022-08-04T14:29:14;29.00;39.60
35325;DHT22;35135;47.510;19.036;2022-08-04T14:31:40;29.00;39.60
35325;DHT22;35135;47.510;19.036;2022-08-04T14:34:06;29.00;39.60
35325;DHT22;35135;47.510;19.036;2022-08-04T14:36:39;29.00;39.60
35325;DHT22;35135;47.510;19.036;2022-08-04T14:39:06;29.00;39.70
35325;DHT22;35135;47.510;19.036;2022-08-04T14:41:53;29.00;39.60
35325;DHT22;35135;47.510;19.036;2022-08-04T14:44:18;29.00;39.60
35325;DHT22;35135;47.510;19.036;2022-08-04T14:46:49;29.00;39.40
35325;DHT22;35135;47.510;19.036;2022-08-04T14:49:16;29.00;39.40
35325;DHT22;35135;47.510;19.036;2022-08-04T14:51:43;29.00;39.40
35325;DHT22;35135;47.510;19.036;2022-08-04T14:54:10;29.10;39.60
35325;DHT22;35135;47.510;19.036;2022-08-04T14:56:41;29.10;39.60
35325;DHT22;35135;47.510;19.036;2022-08-04T14:59:08;29.10;39.60
35325;DHT22;35135;47.510;19.036;2022-08-04T15:01:35;29.10;39.50
35325;DHT22;35135;47.510;19.036;2022-08-04T15:04:02;29.10;39.60
35325;DHT22;35135;47.510;19.036;2022-08-04T15:06:29;29.10;39.60
35325;DHT22;35135;47.510;19.036;2022-08-04T15:09:00;29.10;39.50
35325;DHT22;35135;47.510;19.036;2022-08-04T15:11:27;29.10;39.50
35325;DHT22;35135;47.510;19.036;2022-08-04T15:13:56;29.10;39.60
35325;DHT22;35135;47.510;19.036;2022-08-04T15:16:24;29.10;39.60
35325;DHT22;35135;47.510;19.036;2022-08-04T15:18:50;29.10;39.50
35325;DHT22;35135;47.510;19.036;2022-08-04T15:21:16;29.10;39.50
35325;DHT22;35135;47.510;19.036;2022-08-04T15:23:43;29.10;39.70
35325;DHT22;35135;47.510;19.036;2022-08-04T15:26:11;29.10;39.70
35325;DHT22;35135;47.510;19.036;2022-08-04T15:28:40;29.10;39.70
35325;DHT22;35135;47.510;19.036;2022-08-04T15:31:07;29.10;39.60
35325;DHT22;35135;47.510;19.036;2022-08-04T15:33:38;29.10;39.60
35325;DHT22;35135;47.510;19.036;2022-08-04T15:36:12;29.20;39.70
35325;DHT22;35135;47.510;19.036;2022-08-04T15:38:49;29.20;39.80
35325;DHT22;35135;47.510;19.036;2022-08-04T15:41:37;29.20;39.70
35325;DHT22;35135;47.510;19.036;2022-08-04T15:44:17;29.20;39.60
35325;DHT22;35135;47.510;19.036;2022-08-04T15:49:27;29.20;39.50
35325;DHT22;35135;47.510;19.036;2022-08-04T15:51:59;29.20;39.50
35325;DHT22;35135;47.510;19.036;2022-08-04T15:54:26;29.20;39.40
35325;DHT22;35135;47.510;19.036;2022-08-04T15:56:54;29.20;39.50
35325;DHT22;35135;47.510;19.036;2022-08-04T16:02:34;29.20;39.50
35325;DHT22;35135;47.510;19.036;2022-08-04T16:07:53;29.20;39.50
35325;DHT22;35135;47.510;19.036;2022-08-04T16:12:56;29.20;39.40
35325;DHT22;35135;47.510;19.036;2022-08-04T16:20:56;29.20;39.30
35325;DHT22;35135;47.510;19.036;2022-08-04T16:29:01;29.20;39.50
35325;DHT22;35135;47.510;19.036;2022-08-04T16:31:27;29.20;39.70
35325;DHT22;35135;47.510;19.036;2022-08-04T16:34:02;29.30;39.80
35325;DHT22;35135;47.510;19.036;2022-08-04T16:39:20;29.30;39.80
35325;DHT22;35135;47.510;19.036;2022-08-04T16:41:47;29.30;39.80
35325;DHT22;35135;47.510;19.036;2022-08-04T16:44:30;29.20;39.80
35325;DHT22;35135;47.510;19.036;2022-08-04T16:46:57;29.30;39.90
35325;DHT22;35135;47.510;19.036;2022-08-04T16:49:28;29.30;40.40
35325;DHT22;35135;47.510;19.036;2022-08-04T16:52:03;29.30;39.80
35325;DHT22;35135;47.510;19.036;2022-08-04T16:54:31;29.30;39.60
35325;DHT22;35135;47.510;19.036;2022-08-04T16:56:58;29.30;40.10
35325;DHT22;35135;47.510;19.036;2022-08-04T16:59:25;29.30;39.60
35325;DHT22;35135;47.510;19.036;2022-08-04T17:01:52;29.30;39.50
35325;DHT22;35135;47.510;19.036;2022-08-04T17:04:32;29.30;39.60
35325;DHT22;35135;47.510;19.036;2022-08-04T17:07:00;29.30;39.40
35325;DHT22;35135;47.510;19.036;2022-08-04T17:09:27;29.30;39.20
35325;DHT22;35135;47.510;19.036;2022-08-04T17:11:56;29.30;39.20
35325;DHT22;35135;47.510;19.036;2022-08-04T17:14:28;29.30;39.40
35325;DHT22;35135;47.510;19.036;2022-08-04T17:16:57;29.30;39.60
35325;DHT22;35135;47.510;19.036;2022-08-04T17:19:24;29.30;39.50
35325;DHT22;35135;47.510;19.036;2022-08-04T17:21:56;29.30;40.10
35325;DHT22;35135;47.510;19.036;2022-08-04T17:24:23;29.30;39.60
35325;DHT22;35135;47.510;19.036;2022-08-04T17:26:49;29.30;39.50
35325;DHT22;35135;47.510;19.036;2022-08-04T17:29:17;29.30;39.60
35325;DHT22;35135;47.510;19.036;2022-08-04T17:31:44;29.40;39.70
35325;DHT22;35135;47.510;19.036;2022-08-04T17:34:12;29.30;39.60
35325;DHT22;35135;47.510;19.036;2022-08-04T17:36:41;29.40;39.80
35325;DHT22;35135;47.510;19.036;2022-08-04T17:39:12;29.40;39.80
35325;DHT22;35135;47.510;19.036;2022-08-04T17:41:40;29.40;39.90
35325;DHT22;35135;47.510;19.036;2022-08-04T17:44:07;29.40;39.90
35325;DHT22;35135;47.510;19.036;2022-08-04T17:46:41;29.40;39.90
35325;DHT22;35135;47.510;19.036;2022-08-04T17:54:14;29.40;40.00
35325;DHT22;35135;47.510;19.036;2022-08-04T17:56:48;29.40;39.90
35325;DHT22;35135;47.510;19.036;2022-08-04T17:59:25;29.40;40.00
35325;DHT22;35135;47.510;19.036;2022-08-04T18:02:02;29.40;40.00
35325;DHT22;35135;47.510;19.036;2022-08-04T18:04:39;29.40;40.10
35325;DHT22;35135;47.510;19.036;2022-08-04T18:07:19;29.40;40.00
35325;DHT22;35135;47.510;19.036;2022-08-04T18:09:56;29.40;40.00
35325;DHT22;35135;47.510;19.036;2022-08-04T18:12:33;29.40;40.00
35325;DHT22;35135;47.510;19.036;2022-08-04T18:15:05;29.40;40.00
35325;DHT22;35135;47.510;19.036;2022-08-04T18:17:42;29.40;40.00
35325;DHT22;35135;47.510;19.036;2022-08-04T18:20:09;29.40;40.00
35325;DHT22;35135;47.510;19.036;2022-08-04T18:22:38;29.40;39.90
35325;DHT22;35135;47.510;19.036;2022-08-04T18:25:10;29.40;39.90
35325;DHT22;35135;47.510;19.036;2022-08-04T18:27:48;29.40;39.90
35325;DHT22;35135;47.510;19.036;2022-08-04T18:30:16;29.40;39.90
35325;DHT22;35135;47.510;19.036;2022-08-04T18:32:43;29.40;39.90
35325;DHT22;35135;47.510;19.036;2022-08-04T18:35:13;29.40;39.90
35325;DHT22;35135;47.510;19.036;2022-08-04T18:37:42;29.50;40.00
35325;DHT22;35135;47.510;19.036;2022-08-04T18:40:12;29.40;40.20
35325;DHT22;35135;47.510;19.036;2022-08-04T18:42:38;29.50;40.40
35325;DHT22;35135;47.510;19.036;2022-08-04T18:45:06;29.50;40.30
35325;DHT22;35135;47.510;19.036;2022-08-04T18:47:34;29.50;40.30
35325;DHT22;35135;47.510;19.036;2022-08-04T18:50:00;29.40;40.30
35325;DHT22;35135;47.510;19.036;2022-08-04T18:52:25;29.50;40.30
35325;DHT22;35135;47.510;19.036;2022-08-04T18:54:52;29.50;40.20
35325;DHT22;35135;47.510;19.036;2022-08-04T18:57:20;29.50;40.10
35325;DHT22;35135;47.510;19.036;2022-08-04T18:59:49;29.40;40.00
35325;DHT22;35135;47.510;19.036;2022-08-04T19:02:16;29.50;40.00
35325;DHT22;35135;47.510;19.036;2022-08-04T19:04:44;29.50;40.10
35325;DHT22;35135;47.510;19.036;2022-08-04T19:07:11;29.50;40.20
35325;DHT22;35135;47.510;19.036;2022-08-04T19:09:39;29.50;40.40
35325;DHT22;35135;47.510;19.036;2022-08-04T19:12:09;29.50;40.60
35325;DHT22;35135;47.510;19.036;2022-08-04T19:14:37;29.50;40.70
35325;DHT22;35135;47.510;19.036;2022-08-04T19:17:09;29.50;40.80
35325;DHT22;35135;47.510;19.036;2022-08-04T19:19:36;29.50;41.00
35325;DHT22;35135;47.510;19.036;2022-08-04T19:22:04;29.50;41.10
35325;DHT22;35135;47.510;19.036;2022-08-04T19:24:31;29.50;41.10
35325;DHT22;35135;47.510;19.036;2022-08-04T19:27:02;29.50;41.20
35325;DHT22;35135;47.510;19.036;2022-08-04T19:29:30;29.50;41.10
35325;DHT22;35135;47.510;19.036;2022-08-04T19:31:57;29.50;41.20
35325;DHT22;35135;47.510;19.036;2022-08-04T19:34:25;29.50;41.30
35325;DHT22;35135;47.510;19.036;2022-08-04T19:36:52;29.50;41.40
35325;DHT22;35135;47.510;19.036;2022-08-04T19:39:24;29.50;41.40
35325;DHT22;35135;47.510;19.036;2022-08-04T19:41:50;29.50;41.40
35325;DHT22;35135;47.510;19.036;2022-08-04T19:44:23;29.50;41.40
35325;DHT22;35135;47.510;19.036;2022-08-04T19:46:55;29.50;41.30
35325;DHT22;35135;47.510;19.036;2022-08-04T19:49:21;29.50;41.20
35325;DHT22;35135;47.510;19.036;2022-08-04T19:51:55;29.50;41.30
35325;DHT22;35135;47.510;19.036;2022-08-04T19:54:23;29.50;41.70
35325;DHT22;35135;47.510;19.036;2022-08-04T19:56:51;29.50;41.60